createdAt,value
2023-02-16T00:01:22.995Z,39.45
2023-02-16T00:03:50.847Z,41.13
2023-02-16T00:06:17.888Z,41.20
2023-02-16T00:08:47.147Z,40.00
2023-02-16T00:11:52.590Z,36.60
2023-02-16T00:14:23.561Z,40.53
2023-02-16T00:16:50.792Z,42.20
2023-02-16T00:19:30.664Z,37.00
2023-02-16T00:21:59.228Z,38.53
2023-02-16T00:24:27.401Z,36.33
2023-02-16T00:26:54.601Z,39.63
2023-02-16T00:29:21.202Z,38.53
2023-02-16T00:31:48.106Z,40.42
2023-02-16T00:34:28.869Z,40.40
2023-02-16T00:36:56.777Z,37.40
2023-02-16T00:39:25.228Z,38.33
2023-02-16T00:41:59.266Z,41.60
2023-02-16T00:44:37.251Z,37.63
2023-02-16T00:47:27.260Z,39.38
2023-02-16T00:52:46.125Z,36.72
2023-02-16T00:55:24.967Z,38.70
2023-02-16T00:57:56.527Z,37.67
2023-02-16T01:00:41.510Z,37.47
2023-02-16T01:03:21.004Z,37.97
2023-02-16T01:05:47.596Z,39.90
2023-02-16T01:08:35.688Z,42.17
2023-02-16T01:11:09.951Z,40.35
2023-02-16T01:13:42.502Z,41.97
2023-02-16T01:16:15.161Z,38.33
2023-02-16T01:18:42.128Z,39.08
2023-02-16T01:21:09.011Z,40.20
2023-02-16T01:23:37.141Z,40.88
2023-02-16T01:26:05.252Z,40.65
2023-02-16T01:28:35.614Z,36.30
2023-02-16T01:31:03.310Z,40.20
2023-02-16T01:33:30.193Z,38.80
2023-02-16T01:35:57.866Z,38.60
2023-02-16T01:38:29.231Z,37.85
2023-02-16T01:41:22.776Z,38.08
2023-02-16T01:44:12.857Z,38.63
2023-02-16T01:49:18.476Z,35.08
2023-02-16T01:51:53.773Z,38.05
2023-02-16T01:54:44.703Z,41.30
2023-02-16T01:57:22.328Z,39.03
2023-02-16T01:59:48.862Z,36.90
2023-02-16T02:05:12.089Z,38.72
2023-02-16T02:07:59.880Z,40.53
2023-02-16T02:10:51.232Z,36.85
2023-02-16T02:13:38.767Z,36.83
2023-02-16T02:16:07.043Z,36.13
2023-02-16T02:18:33.807Z,35.65
2023-02-16T02:21:45.086Z,42.28
2023-02-16T02:24:26.480Z,33.08
2023-02-16T02:27:00.816Z,40.83
2023-02-16T02:29:35.506Z,33.90
2023-02-16T02:32:31.518Z,37.03
2023-02-16T02:35:31.945Z,38.28
2023-02-16T02:37:58.625Z,35.38
2023-02-16T02:40:58.924Z,40.33
2023-02-16T02:43:31.821Z,35.28
2023-02-16T02:46:16.494Z,35.63
2023-02-16T02:48:43.379Z,33.80
2023-02-16T02:51:29.047Z,36.25
2023-02-16T02:54:28.470Z,33.65
2023-02-16T02:57:19.274Z,34.28
2023-02-16T03:00:11.461Z,37.83
2023-02-16T03:02:41.321Z,38.13
2023-02-16T03:05:11.716Z,31.83
2023-02-16T03:07:48.103Z,37.20
2023-02-16T03:10:34.846Z,35.95
2023-02-16T03:13:04.098Z,33.05
2023-02-16T03:15:32.050Z,33.50
2023-02-16T03:18:18.708Z,34.40
2023-02-16T03:21:05.186Z,37.63
2023-02-16T03:23:52.059Z,35.63
2023-02-16T03:26:38.030Z,35.72
2023-02-16T03:29:21.288Z,38.00
2023-02-16T03:31:49.055Z,35.88
2023-02-16T03:34:16.925Z,32.28
2023-02-16T03:36:46.404Z,36.08
2023-02-16T03:39:13.562Z,33.45
2023-02-16T03:41:48.860Z,34.25
2023-02-16T03:44:15.838Z,35.13
2023-02-16T03:46:42.689Z,37.53
2023-02-16T03:49:09.432Z,34.35
2023-02-16T03:51:36.230Z,33.90
2023-02-16T03:54:03.058Z,38.67
2023-02-16T03:56:29.821Z,35.70
2023-02-16T03:58:56.484Z,36.20
2023-02-16T04:01:23.289Z,33.85
2023-02-16T04:03:49.985Z,35.85
2023-02-16T04:06:16.795Z,39.58
2023-02-16T04:08:43.468Z,33.92
2023-02-16T04:11:29.013Z,35.15
2023-02-16T04:13:55.697Z,31.02
2023-02-16T04:16:22.357Z,36.10
2023-02-16T04:18:49.061Z,33.70
2023-02-16T04:21:15.774Z,31.17
2023-02-16T04:23:42.449Z,32.53
2023-02-16T04:26:09.098Z,31.92
2023-02-16T04:28:35.820Z,33.10
2023-02-16T04:31:02.873Z,32.33
2023-02-16T04:33:29.800Z,35.38
2023-02-16T04:35:56.457Z,33.13
2023-02-16T04:38:23.142Z,35.47
2023-02-16T04:40:49.852Z,31.90
2023-02-16T04:43:16.485Z,34.10
2023-02-16T04:45:43.237Z,31.85
2023-02-16T04:48:09.972Z,30.25
2023-02-16T04:50:36.690Z,28.73
2023-02-16T04:53:03.349Z,32.25
2023-02-16T04:55:31.048Z,32.08
2023-02-16T04:57:57.844Z,33.10
2023-02-16T05:00:24.936Z,30.92
2023-02-16T05:02:51.597Z,30.48
2023-02-16T05:05:18.324Z,30.95
2023-02-16T05:07:44.902Z,30.42
2023-02-16T05:10:11.618Z,33.08
2023-02-16T05:12:56.773Z,27.88
2023-02-16T05:15:23.556Z,30.65
2023-02-16T05:17:50.220Z,32.70
2023-02-16T05:20:17.041Z,37.13
2023-02-16T05:22:45.687Z,30.17
2023-02-16T05:25:12.877Z,32.58
2023-02-16T05:27:39.614Z,34.03
2023-02-16T05:30:06.958Z,35.42
2023-02-16T05:32:33.590Z,33.05
2023-02-16T05:35:00.422Z,31.00
2023-02-16T05:37:27.141Z,30.63
2023-02-16T05:39:53.836Z,34.88
2023-02-16T05:42:20.505Z,31.80
2023-02-16T05:44:47.931Z,35.85
2023-02-16T05:47:14.596Z,31.65
2023-02-16T05:49:41.316Z,33.00
2023-02-16T05:52:08.509Z,33.17
2023-02-16T05:54:35.165Z,31.83
2023-02-16T05:57:01.796Z,35.60
2023-02-16T05:59:28.605Z,31.52
2023-02-16T06:01:55.338Z,30.92
2023-02-16T06:04:22.305Z,31.23
2023-02-16T06:06:49.208Z,28.67
2023-02-16T06:09:15.991Z,37.42
2023-02-16T06:11:42.774Z,30.88
2023-02-16T06:14:12.481Z,31.55
2023-02-16T06:16:40.787Z,31.90
2023-02-16T06:19:08.311Z,29.92
2023-02-16T06:21:36.535Z,30.33
2023-02-16T06:24:03.631Z,29.17
2023-02-16T06:26:30.687Z,35.13
2023-02-16T06:28:57.635Z,27.05
2023-02-16T06:31:25.392Z,31.02
2023-02-16T06:33:53.226Z,29.17
2023-02-16T06:36:20.257Z,33.00
2023-02-16T06:38:47.043Z,33.70
2023-02-16T06:41:13.757Z,32.05
2023-02-16T06:43:40.367Z,26.98
2023-02-16T06:46:07.090Z,30.70
2023-02-16T06:48:33.748Z,31.13
2023-02-16T06:51:00.483Z,31.52
2023-02-16T06:53:27.163Z,29.98
2023-02-16T06:55:53.758Z,28.65
2023-02-16T06:58:20.451Z,36.78
2023-02-16T07:00:47.163Z,30.98
2023-02-16T07:03:13.842Z,28.92
2023-02-16T07:05:40.647Z,28.80
2023-02-16T07:08:07.462Z,32.50
2023-02-16T07:10:47.752Z,32.08
2023-02-16T07:13:16.487Z,30.88
2023-02-16T07:15:43.067Z,31.55
2023-02-16T07:18:09.750Z,30.30
2023-02-16T07:20:36.561Z,31.75
2023-02-16T07:23:03.139Z,32.35
2023-02-16T07:25:29.781Z,31.05
2023-02-16T07:27:58.456Z,28.95
2023-02-16T07:30:25.459Z,31.15
2023-02-16T07:32:52.118Z,32.15
2023-02-16T07:35:19.067Z,37.13
2023-02-16T07:37:45.933Z,31.20
2023-02-16T07:40:13.497Z,32.35
2023-02-16T07:42:40.230Z,33.03
2023-02-16T07:45:07.062Z,36.35
2023-02-16T07:47:33.658Z,34.88
2023-02-16T07:50:00.329Z,29.35
2023-02-16T07:52:31.140Z,32.30
2023-02-16T07:55:02.042Z,33.53
2023-02-16T07:57:29.230Z,32.60
2023-02-16T07:59:56.644Z,45.22
2023-02-16T08:02:24.900Z,38.45
2023-02-16T08:04:54.685Z,32.72
2023-02-16T08:07:21.720Z,35.00
2023-02-16T08:09:48.486Z,36.15
2023-02-16T08:12:16.505Z,33.03
2023-02-16T08:14:44.366Z,37.20
2023-02-16T08:17:11.531Z,40.38
2023-02-16T08:19:38.231Z,35.60
2023-02-16T08:22:06.255Z,35.10
2023-02-16T08:24:36.406Z,35.40
2023-02-16T08:27:04.644Z,39.08
2023-02-16T08:29:32.113Z,37.83
2023-02-16T08:31:59.558Z,41.58
2023-02-16T08:34:26.725Z,33.30
2023-02-16T08:36:57.534Z,36.65
2023-02-16T08:39:27.562Z,36.65
2023-02-16T08:41:54.860Z,34.78
2023-02-16T08:44:23.823Z,36.00
2023-02-16T08:46:52.426Z,39.88
2023-02-16T08:49:22.068Z,40.97
2023-02-16T08:51:54.897Z,37.85
2023-02-16T08:54:30.661Z,39.50
2023-02-16T08:57:00.497Z,35.42
2023-02-16T08:59:28.777Z,40.53
2023-02-16T09:01:59.236Z,37.85
2023-02-16T09:04:27.657Z,38.88
2023-02-16T09:06:56.250Z,32.38
2023-02-16T09:09:23.095Z,31.10
2023-02-16T09:11:50.153Z,35.83
2023-02-16T09:14:20.379Z,32.95
2023-02-16T09:16:47.037Z,35.83
2023-02-16T09:19:15.266Z,37.95
2023-02-16T09:21:42.335Z,35.25
2023-02-16T09:24:09.553Z,34.72
2023-02-16T09:26:39.910Z,35.75
2023-02-16T09:29:07.146Z,36.70
2023-02-16T09:31:37.273Z,37.28
2023-02-16T09:34:06.102Z,30.70
2023-02-16T09:36:32.768Z,32.67
2023-02-16T09:39:00.200Z,29.67
2023-02-16T09:42:01.805Z,31.80
2023-02-16T09:45:00.192Z,30.55
2023-02-16T09:47:31.074Z,29.88
2023-02-16T09:50:38.278Z,26.90
2023-02-16T09:53:10.181Z,27.02
2023-02-16T09:55:47.549Z,25.65
2023-02-16T09:58:21.889Z,26.15
2023-02-16T10:00:52.258Z,26.33
2023-02-16T10:03:44.066Z,22.63
2023-02-16T10:06:24.604Z,23.05
2023-02-16T10:08:57.519Z,24.27
2023-02-16T10:11:45.637Z,23.05
2023-02-16T10:14:23.661Z,23.55
2023-02-16T10:17:01.872Z,24.98
2023-02-16T10:19:39.564Z,25.77
2023-02-16T10:22:13.104Z,24.45
2023-02-16T10:25:28.110Z,25.77
2023-02-16T10:28:23.049Z,24.38
2023-02-16T10:30:58.294Z,24.85
2023-02-16T10:33:45.177Z,24.88
2023-02-16T10:36:27.024Z,25.13
2023-02-16T10:39:20.864Z,24.10
2023-02-16T10:41:58.449Z,24.42
2023-02-16T10:44:31.876Z,20.45
2023-02-16T10:47:04.097Z,23.10
2023-02-16T10:49:32.784Z,26.05
2023-02-16T10:52:02.494Z,24.52
2023-02-16T10:54:31.940Z,23.70
2023-02-16T10:57:04.915Z,24.75
2023-02-16T10:59:41.945Z,27.75
2023-02-16T11:02:39.584Z,25.63
2023-02-16T11:05:26.403Z,22.33
2023-02-16T11:08:01.519Z,24.80
2023-02-16T11:10:53.666Z,25.98
2023-02-16T11:13:28.793Z,26.63
2023-02-16T11:16:00.405Z,25.77
2023-02-16T11:18:29.970Z,25.63
2023-02-16T11:20:58.574Z,29.95
2023-02-16T11:23:57.420Z,29.77
2023-02-16T11:26:26.300Z,26.63
2023-02-16T11:28:53.799Z,25.27
2023-02-16T11:31:37.517Z,24.27
2023-02-16T11:34:30.893Z,26.45
2023-02-16T11:37:04.198Z,26.65
2023-02-16T11:39:37.254Z,23.27
2023-02-16T11:42:10.538Z,32.72
2023-02-16T11:44:41.574Z,26.92
2023-02-16T11:47:30.162Z,25.85
2023-02-16T11:50:22.880Z,25.92
2023-02-16T11:52:52.189Z,27.20
2023-02-16T11:55:22.946Z,23.73
2023-02-16T11:57:49.628Z,26.40
2023-02-16T12:00:19.474Z,25.52
2023-02-16T12:03:09.763Z,24.98
2023-02-16T12:06:07.215Z,23.35
2023-02-16T12:09:01.443Z,23.23
2023-02-16T12:11:43.132Z,23.90
2023-02-16T12:14:18.493Z,23.02
2023-02-16T12:17:03.623Z,24.63
2023-02-16T12:19:48.017Z,22.83
2023-02-16T12:22:14.696Z,24.58
2023-02-16T12:25:04.667Z,24.73
2023-02-16T12:27:39.738Z,22.60
2023-02-16T12:30:23.607Z,21.92
2023-02-16T12:32:50.570Z,26.17
2023-02-16T12:35:49.437Z,26.83
2023-02-16T12:38:44.227Z,26.40
2023-02-16T12:41:55.823Z,22.40
2023-02-16T12:44:31.952Z,21.55
2023-02-16T12:47:05.324Z,23.00
2023-02-16T12:49:43.674Z,21.67
2023-02-16T12:52:35.466Z,24.88
2023-02-16T12:55:34.084Z,18.85
2023-02-16T12:58:25.214Z,21.58
2023-02-16T13:00:57.399Z,18.55
2023-02-16T13:03:30.255Z,19.42
2023-02-16T13:06:14.662Z,16.90
2023-02-16T13:08:53.068Z,18.95
2023-02-16T13:11:28.610Z,19.60
2023-02-16T13:14:01.494Z,15.95
2023-02-16T13:16:44.276Z,19.90
2023-02-16T13:19:15.458Z,19.38
2023-02-16T13:21:54.387Z,23.90
2023-02-16T13:24:29.401Z,24.08
2023-02-16T13:27:27.036Z,19.05
2023-02-16T13:30:12.491Z,20.02
2023-02-16T13:33:04.185Z,18.98
2023-02-16T13:35:37.218Z,18.60
2023-02-16T13:38:18.651Z,17.45
2023-02-16T13:41:11.828Z,17.15
2023-02-16T13:44:02.220Z,17.13
2023-02-16T13:46:32.370Z,21.52
2023-02-16T13:49:00.189Z,17.17
2023-02-16T13:51:31.172Z,21.65
2023-02-16T13:54:04.031Z,19.20
2023-02-16T13:56:33.823Z,17.77
2023-02-16T13:59:20.408Z,16.35
2023-02-16T14:01:49.067Z,17.35
2023-02-16T14:04:24.979Z,13.05
2023-02-16T14:07:17.915Z,13.88
2023-02-16T14:09:49.318Z,13.30
2023-02-16T14:12:28.492Z,16.23
2023-02-16T14:15:01.392Z,18.30
2023-02-16T14:17:31.261Z,16.05
2023-02-16T14:20:26.953Z,21.08
2023-02-16T14:23:00.383Z,17.15
2023-02-16T14:25:28.945Z,15.60
2023-02-16T14:28:01.545Z,17.05
2023-02-16T14:30:36.311Z,19.40
2023-02-16T14:33:02.909Z,15.52
2023-02-16T14:35:34.142Z,15.43
2023-02-16T14:38:08.292Z,16.65
2023-02-16T14:40:34.958Z,14.73
2023-02-16T14:43:28.317Z,14.20
2023-02-16T14:46:04.098Z,15.13
2023-02-16T14:48:45.948Z,12.10
2023-02-16T14:51:52.961Z,14.95
2023-02-16T14:54:56.838Z,13.98
2023-02-16T14:57:29.353Z,17.30
2023-02-16T15:00:20.042Z,15.32
2023-02-16T15:03:01.976Z,13.45
2023-02-16T15:05:35.868Z,13.75
2023-02-16T15:08:25.338Z,12.68
2023-02-16T15:13:26.271Z,10.68
2023-02-16T15:15:58.721Z,12.30
2023-02-16T15:18:33.852Z,11.60
2023-02-16T15:21:00.937Z,12.55
2023-02-16T15:23:37.436Z,12.20
2023-02-16T15:26:08.582Z,11.32
2023-02-16T15:28:37.892Z,12.32
2023-02-16T15:31:08.263Z,11.90
2023-02-16T15:33:43.332Z,14.30
2023-02-16T15:36:18.985Z,14.48
2023-02-16T15:39:05.363Z,10.82
2023-02-16T15:41:37.311Z,13.57
2023-02-16T15:44:06.398Z,10.13
2023-02-16T15:46:37.090Z,12.18
2023-02-16T15:51:41.092Z,11.77
2023-02-16T15:54:19.728Z,12.68
2023-02-16T15:56:48.378Z,13.20
2023-02-16T15:59:38.674Z,11.55
2023-02-16T16:02:25.941Z,8.80
2023-02-16T16:04:58.509Z,12.20
2023-02-16T16:07:42.485Z,11.88
2023-02-16T16:10:36.907Z,10.15
2023-02-16T16:13:28.231Z,10.05
2023-02-16T16:16:01.799Z,9.85
2023-02-16T16:18:40.564Z,9.38
2023-02-16T16:21:25.360Z,10.15
2023-02-16T16:23:59.906Z,8.38
2023-02-16T16:26:28.455Z,9.35
2023-02-16T16:28:55.913Z,8.50
2023-02-16T16:31:24.619Z,13.35
2023-02-16T16:34:02.834Z,10.65
2023-02-16T16:36:39.249Z,8.88
2023-02-16T16:39:40.423Z,9.27
2023-02-16T16:42:20.590Z,12.40
2023-02-16T16:45:00.018Z,11.35
2023-02-16T16:47:38.524Z,13.18
2023-02-16T16:50:30.480Z,10.85
2023-02-16T16:52:58.154Z,13.95
2023-02-16T16:55:28.917Z,13.30
2023-02-16T16:57:58.742Z,12.95
2023-02-16T17:00:28.651Z,13.60
2023-02-16T17:02:55.253Z,10.93
2023-02-16T17:05:22.085Z,16.30
2023-02-16T17:07:50.159Z,19.08
2023-02-16T17:10:18.336Z,11.77
2023-02-16T17:12:47.518Z,13.27
2023-02-16T17:15:34.615Z,12.75
2023-02-16T17:18:02.173Z,13.07
2023-02-16T17:20:28.712Z,11.85
2023-02-16T17:22:55.389Z,16.05
2023-02-16T17:25:22.023Z,16.23
2023-02-16T17:27:48.561Z,14.23
2023-02-16T17:30:15.641Z,16.45
2023-02-16T17:32:42.348Z,13.68
2023-02-16T17:35:09.051Z,16.50
2023-02-16T17:37:35.702Z,13.48
2023-02-16T17:40:05.788Z,11.05
2023-02-16T17:42:32.344Z,12.90
2023-02-16T17:44:58.920Z,12.43
2023-02-16T17:47:25.713Z,13.85
2023-02-16T17:49:55.240Z,11.43
2023-02-16T17:52:21.961Z,11.93
2023-02-16T17:54:48.803Z,12.30
2023-02-16T17:57:15.333Z,14.30
2023-02-16T17:59:42.282Z,19.85
2023-02-16T18:02:11.901Z,10.98
2023-02-16T18:04:41.267Z,14.80
2023-02-16T18:07:14.836Z,22.88
2023-02-16T18:09:42.008Z,15.52
2023-02-16T18:12:08.632Z,16.38
2023-02-16T18:14:36.347Z,12.73
2023-02-16T18:17:04.121Z,12.77
2023-02-16T18:19:31.998Z,17.73
2023-02-16T18:21:59.303Z,14.25
2023-02-16T18:24:26.187Z,15.77
2023-02-16T18:26:54.749Z,14.95
2023-02-16T18:29:21.534Z,15.57
2023-02-16T18:31:48.114Z,14.88
2023-02-16T18:34:14.756Z,13.02
2023-02-16T18:36:41.382Z,14.02
2023-02-16T18:39:09.209Z,15.23
2023-02-16T18:41:36.547Z,15.18
2023-02-16T18:44:03.334Z,16.10
2023-02-16T18:46:29.994Z,15.23
2023-02-16T18:48:56.569Z,15.55
2023-02-16T18:51:25.894Z,14.32
2023-02-16T18:53:52.469Z,16.45
2023-02-16T18:56:19.048Z,12.75
2023-02-16T18:58:45.551Z,18.15
2023-02-16T19:01:14.865Z,14.13
2023-02-16T19:03:42.065Z,15.32
2023-02-16T19:06:08.728Z,18.95
2023-02-16T19:08:35.270Z,17.00
2023-02-16T19:11:01.882Z,18.00
2023-02-16T19:13:28.509Z,18.85
2023-02-16T19:15:55.212Z,19.27
2023-02-16T19:18:21.729Z,17.10
2023-02-16T19:20:48.284Z,18.27
2023-02-16T19:23:15.132Z,17.90
2023-02-16T19:25:41.715Z,18.02
2023-02-16T19:28:08.240Z,18.25
2023-02-16T19:30:34.895Z,21.77
2023-02-16T19:33:01.454Z,18.80
2023-02-16T19:35:28.080Z,17.70
2023-02-16T19:37:55.822Z,20.85
2023-02-16T19:40:22.423Z,20.38
2023-02-16T19:42:49.324Z,19.40
2023-02-16T19:45:15.918Z,16.55
2023-02-16T19:47:42.529Z,19.05
2023-02-16T19:50:09.404Z,16.70
2023-02-16T19:52:36.014Z,17.38
2023-02-16T19:55:02.587Z,16.85
2023-02-16T19:57:29.099Z,18.00
2023-02-16T19:59:55.631Z,18.85
2023-02-16T20:02:22.194Z,19.20
2023-02-16T20:04:48.866Z,24.40
2023-02-16T20:07:15.466Z,25.35
2023-02-16T20:09:42.229Z,21.65
2023-02-16T20:12:08.788Z,20.13
2023-02-16T20:14:35.354Z,19.95
2023-02-16T20:17:01.913Z,25.55
2023-02-16T20:19:28.545Z,19.58
2023-02-16T20:21:55.220Z,24.13
2023-02-16T20:24:21.870Z,20.77
2023-02-16T20:26:49.954Z,19.65
2023-02-16T20:29:16.750Z,20.60
2023-02-16T20:31:56.128Z,21.40
2023-02-16T20:34:24.432Z,23.40
2023-02-16T20:36:51.050Z,22.42
2023-02-16T20:39:19.582Z,19.10
2023-02-16T20:41:46.134Z,24.65
2023-02-16T20:44:13.130Z,21.75
2023-02-16T20:46:41.283Z,20.88
2023-02-16T20:49:08.748Z,23.48
2023-02-16T20:51:36.144Z,24.25
2023-02-16T20:54:03.697Z,26.20
2023-02-16T20:56:30.463Z,26.48
2023-02-16T20:58:57.731Z,23.20
2023-02-16T21:01:27.016Z,20.63
2023-02-16T21:03:55.156Z,23.02
2023-02-16T21:06:23.988Z,22.77
2023-02-16T21:08:52.317Z,25.70
2023-02-16T21:11:19.212Z,22.55
2023-02-16T21:13:46.207Z,26.08
2023-02-16T21:16:14.357Z,24.60
2023-02-16T21:18:41.460Z,22.27
2023-02-16T21:21:09.564Z,23.42
2023-02-16T21:23:38.437Z,24.08
2023-02-16T21:26:06.193Z,23.60
2023-02-16T21:28:33.289Z,26.00
2023-02-16T21:31:12.194Z,23.15
2023-02-16T21:33:39.283Z,21.83
2023-02-16T21:36:08.999Z,23.58
2023-02-16T21:38:38.200Z,23.58
2023-02-16T21:41:25.109Z,24.35
2023-02-16T21:44:01.287Z,22.52
2023-02-16T21:46:31.036Z,21.10
2023-02-16T21:48:58.290Z,26.55
2023-02-16T21:51:30.329Z,26.40
2023-02-16T21:53:57.901Z,26.38
2023-02-16T21:56:35.138Z,23.55
2023-02-16T21:59:02.102Z,27.50
2023-02-16T22:01:31.193Z,26.05
2023-02-16T22:04:00.530Z,24.65
2023-02-16T22:06:30.203Z,24.60
2023-02-16T22:08:56.882Z,23.70
2023-02-16T22:11:23.888Z,22.45
2023-02-16T22:13:55.234Z,22.98
2023-02-16T22:16:22.054Z,25.17
2023-02-16T22:18:49.296Z,25.35
2023-02-16T22:21:16.908Z,26.50
2023-02-16T22:23:43.545Z,24.63
2023-02-16T22:26:29.080Z,24.67
2023-02-16T22:28:56.126Z,23.58
2023-02-16T22:31:25.045Z,22.55
2023-02-16T22:34:00.466Z,25.98
2023-02-16T22:36:27.833Z,23.50
2023-02-16T22:38:54.979Z,21.38
2023-02-16T22:41:22.882Z,25.15
2023-02-16T22:43:54.411Z,26.23
2023-02-16T22:46:22.161Z,27.27
2023-02-16T22:48:49.135Z,23.92
2023-02-16T22:51:17.112Z,23.92
2023-02-16T22:53:44.049Z,22.00
2023-02-16T22:56:13.503Z,24.42
2023-02-16T22:58:40.217Z,21.90
2023-02-16T23:01:33.654Z,24.73
2023-02-16T23:04:01.568Z,21.88
2023-02-16T23:06:31.143Z,23.67
2023-02-16T23:09:00.784Z,23.98
2023-02-16T23:11:28.190Z,27.50
2023-02-16T23:13:54.848Z,25.00
2023-02-16T23:16:23.993Z,24.85
2023-02-16T23:18:50.860Z,28.35
2023-02-16T23:21:21.881Z,24.30
2023-02-16T23:23:50.259Z,26.70
2023-02-16T23:26:18.898Z,24.67
2023-02-16T23:28:45.887Z,26.52
2023-02-16T23:31:12.909Z,26.48
2023-02-16T23:33:39.673Z,24.15
2023-02-16T23:36:06.760Z,23.48
2023-02-16T23:38:35.667Z,25.90
2023-02-16T23:41:05.787Z,27.52
2023-02-16T23:43:32.676Z,27.10
2023-02-16T23:46:00.494Z,27.90
2023-02-16T23:48:27.553Z,27.00
2023-02-16T23:50:54.286Z,25.98
2023-02-16T23:53:22.784Z,24.38
2023-02-16T23:56:03.805Z,25.65
2023-02-16T23:58:41.461Z,26.95
